createdAt,value
2022-12-25T00:00:27.186Z,7.5
2022-12-25T00:01:29.208Z,7.4
2022-12-25T00:02:31.520Z,7.5
2022-12-25T00:03:33.281Z,7.4
2022-12-25T00:04:35.154Z,7.4
2022-12-25T00:05:37.164Z,7.4
2022-12-25T00:06:39.135Z,7.5
2022-12-25T00:07:41.158Z,7.5
2022-12-25T00:08:43.174Z,7.5
2022-12-25T00:09:45.175Z,7.6
2022-12-25T00:10:47.197Z,7.6
2022-12-25T00:11:49.158Z,7.7
2022-12-25T00:12:51.141Z,7.7
2022-12-25T00:13:53.182Z,7.7
2022-12-25T00:14:55.175Z,7.8
2022-12-25T00:15:57.203Z,7.8
2022-12-25T00:16:59.193Z,7.8
2022-12-25T00:18:01.703Z,7.7
2022-12-25T00:19:03.156Z,7.5
2022-12-25T00:20:05.201Z,7.5
2022-12-25T00:21:07.224Z,7.5
2022-12-25T00:22:09.162Z,7.4
2022-12-25T00:23:11.206Z,7.4
2022-12-25T00:24:13.172Z,7.5
2022-12-25T00:25:15.166Z,7.6
2022-12-25T00:26:17.255Z,7.8
2022-12-25T00:27:19.207Z,7.9
2022-12-25T00:28:21.154Z,8
2022-12-25T00:29:23.161Z,8.1
2022-12-25T00:30:24.176Z,8.1
2022-12-25T00:31:26.213Z,8.2
2022-12-25T00:32:28.216Z,8.2
2022-12-25T00:33:30.162Z,8.2
2022-12-25T00:34:32.226Z,8.3
2022-12-25T00:35:34.143Z,8.3
2022-12-25T00:36:41.297Z,8.2
2022-12-25T00:37:38.217Z,8.2
2022-12-25T00:38:40.144Z,8.2
2022-12-25T00:39:41.194Z,8.2
2022-12-25T00:40:43.197Z,8.2
2022-12-25T00:41:45.226Z,8.2
2022-12-25T00:42:47.222Z,8.1
2022-12-25T00:43:49.197Z,8.2
2022-12-25T00:44:51.155Z,8.1
2022-12-25T00:45:52.202Z,8.1
2022-12-25T00:46:53.261Z,8.2
2022-12-25T00:47:55.195Z,8.2
2022-12-25T00:48:57.182Z,8.1
2022-12-25T00:49:58.199Z,8.1
2022-12-25T00:51:00.174Z,8.1
2022-12-25T00:52:02.199Z,8.2
2022-12-25T00:53:04.204Z,8.2
2022-12-25T00:54:06.218Z,8.2
2022-12-25T00:55:08.157Z,8.2
2022-12-25T00:56:10.172Z,8.2
2022-12-25T00:57:12.330Z,8.1
2022-12-25T00:58:14.213Z,8.1
2022-12-25T00:59:16.213Z,8.1
2022-12-25T01:00:18.151Z,8.1
2022-12-25T01:01:20.341Z,8
2022-12-25T01:02:22.402Z,8
2022-12-25T01:03:24.161Z,8
2022-12-25T01:04:25.193Z,7.9
2022-12-25T01:05:27.235Z,7.9
2022-12-25T01:06:29.213Z,7.9
2022-12-25T01:07:31.173Z,7.8
2022-12-25T01:08:33.215Z,7.7
2022-12-25T01:09:35.273Z,7.7
2022-12-25T01:10:37.173Z,7.7
2022-12-25T01:11:39.201Z,7.7
2022-12-25T01:12:41.267Z,7.6
2022-12-25T01:13:43.224Z,7.5
2022-12-25T01:14:45.293Z,7.4
2022-12-25T01:15:47.655Z,7.4
2022-12-25T01:16:49.231Z,7.4
2022-12-25T01:17:50.232Z,7.4
2022-12-25T01:18:52.163Z,7.3
2022-12-25T01:19:54.195Z,7.3
2022-12-25T01:20:56.158Z,7.4
2022-12-25T01:21:57.231Z,7.4
2022-12-25T01:22:59.217Z,7.4
2022-12-25T01:24:01.235Z,7.4
2022-12-25T01:25:03.215Z,7.3
2022-12-25T01:26:05.253Z,7.3
2022-12-25T01:27:07.193Z,7.3
2022-12-25T01:28:09.257Z,7.3
2022-12-25T01:29:11.184Z,7.3
2022-12-25T01:30:13.288Z,7.3
2022-12-25T01:31:15.319Z,7.3
2022-12-25T01:32:17.254Z,7.3
2022-12-25T01:33:19.196Z,7.3
2022-12-25T01:34:21.295Z,7.2
2022-12-25T01:35:23.300Z,7.1
2022-12-25T01:36:25.337Z,7
2022-12-25T01:37:27.257Z,7
2022-12-25T01:38:29.420Z,7
2022-12-25T01:39:31.266Z,7
2022-12-25T01:40:33.253Z,7.1
2022-12-25T01:41:35.173Z,7.1
2022-12-25T01:42:37.371Z,7.2
2022-12-25T01:43:39.220Z,7.2
2022-12-25T01:44:40.454Z,7.3
2022-12-25T01:45:42.629Z,7.4
2022-12-25T01:46:44.222Z,7.4
2022-12-25T01:47:46.251Z,7.4
2022-12-25T01:48:48.212Z,7.4
2022-12-25T01:49:50.205Z,7.4
2022-12-25T01:50:52.332Z,7.4
2022-12-25T01:51:54.199Z,7.5
2022-12-25T01:52:56.213Z,7.5
2022-12-25T01:53:57.256Z,7.5
2022-12-25T01:54:59.176Z,7.5
2022-12-25T01:56:01.336Z,7.5
2022-12-25T01:57:03.208Z,7.6
2022-12-25T01:58:05.264Z,7.6
2022-12-25T01:59:07.239Z,7.6
2022-12-25T02:00:08.255Z,7.6
2022-12-25T02:01:10.327Z,7.6
2022-12-25T02:02:12.297Z,7.6
2022-12-25T02:03:14.259Z,7.5
2022-12-25T02:07:05.247Z,7.6
2022-12-25T02:08:07.245Z,7.6
2022-12-25T02:09:09.228Z,7.6
2022-12-25T02:10:11.263Z,7.6
2022-12-25T02:11:13.334Z,7.7
2022-12-25T02:12:15.248Z,7.7
2022-12-25T02:13:17.241Z,7.7
2022-12-25T02:14:19.296Z,7.6
2022-12-25T02:15:21.503Z,7.6
2022-12-25T02:16:23.204Z,7.6
2022-12-25T02:17:25.269Z,7.6
2022-12-25T02:18:27.216Z,7.6
2022-12-25T02:19:29.236Z,7.6
2022-12-25T02:20:31.227Z,7.5
2022-12-25T02:21:33.245Z,7.5
2022-12-25T02:22:35.218Z,7.4
2022-12-25T02:23:37.275Z,7.4
2022-12-25T02:24:39.218Z,7.4
2022-12-25T02:25:41.238Z,7.4
2022-12-25T02:26:43.279Z,7.4
2022-12-25T02:27:45.268Z,7.4
2022-12-25T02:28:47.266Z,7.4
2022-12-25T02:29:49.352Z,7.4
2022-12-25T02:30:51.236Z,7.3
2022-12-25T02:31:53.301Z,7.3
2022-12-25T02:32:55.285Z,7.2
2022-12-25T02:33:57.243Z,7.1
2022-12-25T02:34:59.321Z,7
2022-12-25T02:36:01.337Z,7
2022-12-25T02:37:03.187Z,7
2022-12-25T02:38:04.200Z,7
2022-12-25T02:39:06.197Z,7
2022-12-25T02:40:08.298Z,6.9
2022-12-25T02:41:10.257Z,6.9
2022-12-25T02:42:12.218Z,6.9
2022-12-25T02:43:13.236Z,6.8
2022-12-25T02:44:15.288Z,6.8
2022-12-25T02:45:17.351Z,6.8
2022-12-25T02:46:19.368Z,6.7
2022-12-25T02:47:21.658Z,6.7
2022-12-25T02:48:23.257Z,6.7
2022-12-25T02:49:25.197Z,6.6
2022-12-25T02:50:26.266Z,6.6
2022-12-25T02:51:28.314Z,6.6
2022-12-25T02:52:30.299Z,6.6
2022-12-25T02:53:32.258Z,6.6
2022-12-25T02:54:34.267Z,6.6
2022-12-25T02:55:36.292Z,6.6
2022-12-25T02:56:38.258Z,6.5
2022-12-25T02:57:45.326Z,6.5
2022-12-25T02:58:47.287Z,6.5
2022-12-25T02:59:49.293Z,6.4
2022-12-25T03:00:51.275Z,6.3
2022-12-25T03:01:53.447Z,6.3
2022-12-25T03:02:55.331Z,6.3
2022-12-25T03:03:57.218Z,6.3
2022-12-25T03:04:59.299Z,6.3
2022-12-25T03:06:01.279Z,6.3
2022-12-25T03:07:03.285Z,6.2
2022-12-25T03:08:05.299Z,6.2
2022-12-25T03:09:07.259Z,6.2
2022-12-25T03:10:09.281Z,6.2
2022-12-25T03:11:11.192Z,6.2
2022-12-25T03:12:13.272Z,6.2
2022-12-25T03:13:15.283Z,6.2
2022-12-25T03:14:17.271Z,6.2
2022-12-25T03:15:19.330Z,6.2
2022-12-25T03:16:21.762Z,6.2
2022-12-25T03:17:23.257Z,6.2
2022-12-25T03:18:25.328Z,6.2
2022-12-25T03:19:27.351Z,6.2
2022-12-25T03:20:29.638Z,6.2
2022-12-25T03:21:31.258Z,6.2
2022-12-25T03:22:33.403Z,6.1
2022-12-25T03:23:35.238Z,6.1
2022-12-25T03:24:37.237Z,6.1
2022-12-25T03:25:38.257Z,6.1
2022-12-25T03:26:39.519Z,6.1
2022-12-25T03:27:41.529Z,6.1
2022-12-25T03:28:43.360Z,6.1
2022-12-25T03:29:45.454Z,6
2022-12-25T03:30:47.628Z,6
2022-12-25T03:31:49.351Z,6
2022-12-25T03:32:51.241Z,6
2022-12-25T03:33:53.337Z,6
2022-12-25T03:34:55.223Z,6
2022-12-25T03:35:57.375Z,6
2022-12-25T03:36:59.427Z,6
2022-12-25T03:38:01.738Z,6
2022-12-25T03:39:08.281Z,6
2022-12-25T03:40:10.307Z,6
2022-12-25T03:41:12.268Z,6
2022-12-25T03:42:14.351Z,6
2022-12-25T03:43:16.367Z,5.9
2022-12-25T03:44:18.250Z,5.9
2022-12-25T03:45:20.279Z,5.9
2022-12-25T03:46:22.387Z,5.9
2022-12-25T03:47:24.501Z,5.8
2022-12-25T03:48:26.260Z,5.8
2022-12-25T03:49:28.248Z,5.8
2022-12-25T03:50:30.288Z,5.8
2022-12-25T03:51:32.280Z,5.7
2022-12-25T03:52:34.547Z,5.7
2022-12-25T03:53:36.239Z,5.7
2022-12-25T03:54:38.370Z,5.7
2022-12-25T03:55:40.248Z,5.7
2022-12-25T03:56:42.288Z,5.7
2022-12-25T03:57:44.320Z,5.7
2022-12-25T03:58:46.366Z,5.6
2022-12-25T03:59:48.283Z,5.6
2022-12-25T04:00:50.271Z,5.6
2022-12-25T04:01:52.628Z,5.6
2022-12-25T04:02:54.386Z,5.6
2022-12-25T04:03:56.220Z,5.6
2022-12-25T04:04:58.247Z,5.6
2022-12-25T04:06:00.328Z,5.5
2022-12-25T04:07:02.276Z,5.5
2022-12-25T04:08:04.305Z,5.4
2022-12-25T04:09:06.274Z,5.3
2022-12-25T04:10:08.244Z,5.2
2022-12-25T04:11:10.347Z,5.1
2022-12-25T04:12:12.281Z,5
2022-12-25T04:13:14.253Z,4.8
2022-12-25T04:14:16.337Z,4.8
2022-12-25T04:15:18.430Z,4.8
2022-12-25T04:16:20.464Z,4.8
2022-12-25T04:17:22.264Z,4.8
2022-12-25T04:18:24.306Z,4.9
2022-12-25T04:19:26.264Z,4.9
2022-12-25T04:20:28.284Z,5
2022-12-25T04:21:30.329Z,5
2022-12-25T04:22:32.291Z,5.1
2022-12-25T04:23:34.288Z,5.1
2022-12-25T04:24:36.241Z,5
2022-12-25T04:25:38.587Z,5
2022-12-25T04:26:40.260Z,5
2022-12-25T04:27:42.286Z,4.9
2022-12-25T04:28:44.321Z,4.9
2022-12-25T04:29:46.266Z,4.8
2022-12-25T04:30:47.427Z,4.9
2022-12-25T04:31:49.357Z,4.9
2022-12-25T04:32:51.279Z,4.8
2022-12-25T04:33:53.302Z,4.7
2022-12-25T04:34:55.302Z,4.7
2022-12-25T04:35:57.399Z,4.6
2022-12-25T04:36:59.311Z,4.6
2022-12-25T04:38:01.401Z,4.7
2022-12-25T04:39:03.294Z,4.7
2022-12-25T04:40:05.369Z,4.7
2022-12-25T04:41:07.277Z,4.7
2022-12-25T04:42:09.307Z,4.7
2022-12-25T04:43:11.341Z,4.7
2022-12-25T04:44:13.368Z,4.7
2022-12-25T04:45:15.339Z,4.8
2022-12-25T04:46:17.403Z,4.8
2022-12-25T04:47:19.340Z,4.8
2022-12-25T04:48:21.282Z,4.8
2022-12-25T04:49:23.467Z,4.8
2022-12-25T04:50:25.286Z,4.8
2022-12-25T04:51:27.311Z,4.8
2022-12-25T04:52:29.327Z,4.7
2022-12-25T04:53:31.275Z,4.7
2022-12-25T04:54:33.327Z,4.7
2022-12-25T04:55:35.400Z,4.8
2022-12-25T04:56:41.805Z,4.8
2022-12-25T04:57:39.340Z,4.8
2022-12-25T04:58:41.261Z,4.8
2022-12-25T04:59:43.319Z,4.8
2022-12-25T05:00:45.274Z,4.7
2022-12-25T05:01:46.375Z,4.7
2022-12-25T05:02:48.471Z,4.7
2022-12-25T05:03:50.368Z,4.7
2022-12-25T05:04:51.306Z,4.6
2022-12-25T05:05:53.259Z,4.6
2022-12-25T05:06:55.315Z,4.6
2022-12-25T05:07:57.342Z,4.6
2022-12-25T05:08:59.302Z,4.6
2022-12-25T05:10:01.357Z,4.6
2022-12-25T05:11:03.260Z,4.5
2022-12-25T05:12:05.300Z,4.5
2022-12-25T05:13:07.327Z,4.5
2022-12-25T05:14:09.278Z,4.5
2022-12-25T05:15:11.342Z,4.5
2022-12-25T05:16:13.346Z,4.5
2022-12-25T05:17:15.315Z,4.4
2022-12-25T05:18:17.281Z,4.5
2022-12-25T05:19:19.331Z,4.4
2022-12-25T05:20:21.308Z,4.4
2022-12-25T05:21:23.295Z,4.5
2022-12-25T05:22:25.284Z,4.5
2022-12-25T05:23:27.320Z,4.5
2022-12-25T05:24:29.292Z,4.5
2022-12-25T05:25:31.341Z,4.5
2022-12-25T05:26:33.354Z,4.6
2022-12-25T05:27:35.400Z,4.5
2022-12-25T05:28:37.319Z,4.6
2022-12-25T05:29:39.305Z,4.6
2022-12-25T05:30:41.281Z,4.6
2022-12-25T05:31:43.318Z,4.6
2022-12-25T05:32:45.291Z,4.6
2022-12-25T05:33:47.368Z,4.6
2022-12-25T05:34:49.300Z,4.5
2022-12-25T05:35:51.328Z,4.6
2022-12-25T05:36:53.336Z,4.5
2022-12-25T05:37:55.339Z,4.5
2022-12-25T05:38:57.277Z,4.5
2022-12-25T05:39:59.294Z,4.5
2022-12-25T05:41:01.364Z,4.6
2022-12-25T05:42:03.340Z,4.6
2022-12-25T05:43:05.305Z,4.7
2022-12-25T05:44:07.280Z,4.7
2022-12-25T05:45:09.341Z,4.8
2022-12-25T05:46:11.382Z,4.8
2022-12-25T05:47:13.340Z,4.9
2022-12-25T05:48:15.390Z,5
2022-12-25T05:49:17.369Z,5
2022-12-25T05:50:19.341Z,5.1
2022-12-25T05:51:21.303Z,5.1
2022-12-25T05:52:23.341Z,5.2
2022-12-25T05:53:25.279Z,5.2
2022-12-25T05:54:26.299Z,5.2
2022-12-25T05:55:28.326Z,5.2
2022-12-25T05:56:30.320Z,5.2
2022-12-25T05:57:32.336Z,5.2
2022-12-25T05:58:34.319Z,5.2
2022-12-25T05:59:36.299Z,5.2
2022-12-25T06:00:38.279Z,5.2
2022-12-25T06:01:40.351Z,5.2
2022-12-25T06:02:42.411Z,5.1
2022-12-25T06:03:44.690Z,5.1
2022-12-25T06:04:46.319Z,5.2
2022-12-25T06:05:48.383Z,5.2
2022-12-25T06:06:50.393Z,5.1
2022-12-25T06:07:52.326Z,5.1
2022-12-25T06:08:54.337Z,5.1
2022-12-25T06:09:55.340Z,5.1
2022-12-25T06:10:57.401Z,5
2022-12-25T06:11:59.339Z,5
2022-12-25T06:13:01.402Z,5.1
2022-12-25T06:14:03.443Z,5
2022-12-25T06:15:05.368Z,5
2022-12-25T06:16:07.350Z,4.9
2022-12-25T06:17:09.327Z,4.8
2022-12-25T06:18:11.362Z,4.8
2022-12-25T06:19:13.302Z,4.9
2022-12-25T06:20:15.336Z,4.9
2022-12-25T06:21:17.367Z,4.9
2022-12-25T06:22:19.384Z,5
2022-12-25T06:23:21.468Z,4.9
2022-12-25T06:24:23.318Z,5
2022-12-25T06:25:25.363Z,4.9
2022-12-25T06:26:27.986Z,4.9
2022-12-25T06:27:29.443Z,4.8
2022-12-25T06:28:31.319Z,4.9
2022-12-25T06:29:32.325Z,4.8
2022-12-25T06:30:33.375Z,4.8
2022-12-25T06:31:35.405Z,4.8
2022-12-25T06:32:37.394Z,4.8
2022-12-25T06:33:39.356Z,4.8
2022-12-25T06:34:41.368Z,4.7
2022-12-25T06:35:43.380Z,4.7
2022-12-25T06:36:45.388Z,4.7
2022-12-25T06:37:47.366Z,4.7
2022-12-25T06:38:49.425Z,4.6
2022-12-25T06:39:51.328Z,4.6
2022-12-25T06:40:53.359Z,4.6
2022-12-25T06:41:55.341Z,4.6
2022-12-25T06:42:57.324Z,4.5
2022-12-25T06:43:58.368Z,4.6
2022-12-25T06:45:00.379Z,4.5
2022-12-25T06:46:02.480Z,4.6
2022-12-25T06:47:04.361Z,4.5
2022-12-25T06:48:06.364Z,4.4
2022-12-25T06:49:08.369Z,4.4
2022-12-25T06:50:10.422Z,4.3
2022-12-25T06:51:12.340Z,4.3
2022-12-25T06:52:14.440Z,4.3
2022-12-25T06:53:16.533Z,4.2
2022-12-25T06:54:18.387Z,4.1
2022-12-25T06:55:20.296Z,4.1
2022-12-25T06:56:21.341Z,4
2022-12-25T06:57:23.339Z,3.9
2022-12-25T06:58:25.380Z,3.9
2022-12-25T06:59:27.335Z,3.9
2022-12-25T07:00:29.386Z,3.9
2022-12-25T07:01:31.467Z,3.9
2022-12-25T07:02:33.670Z,3.9
2022-12-25T07:03:35.480Z,3.9
2022-12-25T07:04:37.717Z,4
2022-12-25T07:05:39.359Z,4
2022-12-25T07:06:41.383Z,4
2022-12-25T07:07:43.316Z,4
2022-12-25T07:08:45.359Z,4
2022-12-25T07:09:46.406Z,4.1
2022-12-25T07:10:48.339Z,4.1
2022-12-25T07:11:50.301Z,4.2
2022-12-25T07:12:51.352Z,4.1
2022-12-25T07:13:53.448Z,4.1
2022-12-25T07:14:55.360Z,4.1
2022-12-25T07:15:57.385Z,4
2022-12-25T07:16:58.431Z,4
2022-12-25T07:18:00.400Z,4
2022-12-25T07:19:02.369Z,3.9
2022-12-25T07:20:04.426Z,3.9
2022-12-25T07:21:06.386Z,3.9
2022-12-25T07:22:07.358Z,3.9
2022-12-25T07:23:09.401Z,4
2022-12-25T07:24:11.410Z,3.9
2022-12-25T07:25:13.448Z,4
2022-12-25T07:26:15.496Z,3.9
2022-12-25T07:27:17.379Z,3.9
2022-12-25T07:28:19.359Z,3.9
2022-12-25T07:29:21.377Z,3.8
2022-12-25T07:30:23.420Z,3.8
2022-12-25T07:31:25.415Z,3.8
2022-12-25T07:32:27.340Z,3.8
2022-12-25T07:33:29.416Z,3.8
2022-12-25T07:34:31.416Z,3.9
2022-12-25T07:35:33.423Z,3.9
2022-12-25T07:36:35.378Z,3.9
2022-12-25T07:37:37.420Z,3.9
2022-12-25T07:38:39.398Z,3.9
2022-12-25T07:39:41.363Z,3.9
2022-12-25T07:40:43.399Z,3.9
2022-12-25T07:41:45.389Z,3.9
2022-12-25T07:42:47.420Z,4
2022-12-25T07:43:49.441Z,4
2022-12-25T07:44:51.339Z,4
2022-12-25T07:45:52.437Z,4.1
2022-12-25T07:46:54.369Z,4.1
2022-12-25T07:48:01.358Z,4
2022-12-25T07:48:58.610Z,3.9
2022-12-25T07:50:01.059Z,3.9
2022-12-25T07:51:02.681Z,3.9
2022-12-25T07:52:04.468Z,3.9
2022-12-25T07:53:06.562Z,3.8
2022-12-25T07:54:08.420Z,3.9
2022-12-25T07:55:10.449Z,3.9
2022-12-25T07:56:12.362Z,3.9
2022-12-25T07:57:14.438Z,4
2022-12-25T07:58:21.412Z,4
2022-12-25T07:59:18.406Z,4.1
2022-12-25T08:00:20.419Z,4
2022-12-25T08:01:22.513Z,4.1
2022-12-25T08:02:24.351Z,4.3
2022-12-25T08:03:25.535Z,4.4
2022-12-25T08:04:27.399Z,4.6
2022-12-25T08:05:29.358Z,4.7
2022-12-25T08:06:31.427Z,4.8
2022-12-25T08:07:33.378Z,5
2022-12-25T08:08:35.496Z,5.1
2022-12-25T08:09:37.562Z,5.3
2022-12-25T08:10:39.700Z,5.4
2022-12-25T08:11:41.446Z,5.5
2022-12-25T08:12:43.420Z,5.7
2022-12-25T08:13:45.400Z,5.8
2022-12-25T08:14:47.408Z,5.9
2022-12-25T08:15:49.407Z,6
2022-12-25T08:16:51.547Z,6.1
2022-12-25T08:17:53.378Z,6.1
2022-12-25T08:18:55.460Z,6.2
2022-12-25T08:19:57.389Z,6.3
2022-12-25T08:20:59.400Z,6.3
2022-12-25T08:22:01.504Z,6.4
2022-12-25T08:23:03.380Z,6.6
2022-12-25T08:24:04.377Z,6.6
2022-12-25T08:25:05.361Z,6.7
2022-12-25T08:26:07.398Z,6.8
2022-12-25T08:27:09.424Z,6.8
2022-12-25T08:28:11.380Z,6.8
2022-12-25T08:29:13.381Z,6.8
2022-12-25T08:30:15.571Z,6.7
2022-12-25T08:31:17.448Z,6.7
2022-12-25T08:32:19.366Z,6.7
2022-12-25T08:33:20.335Z,6.8
2022-12-25T08:34:21.484Z,6.8
2022-12-25T08:35:23.923Z,6.8
2022-12-25T08:36:25.927Z,6.9
2022-12-25T08:37:27.444Z,6.9
2022-12-25T08:38:29.366Z,7
2022-12-25T08:39:30.392Z,7.2
2022-12-25T08:40:31.371Z,7.3
2022-12-25T08:41:32.404Z,7.4
2022-12-25T08:42:33.371Z,7.4
2022-12-25T08:43:34.417Z,7.5
2022-12-25T08:44:36.481Z,7.6
2022-12-25T08:45:38.440Z,7.8
2022-12-25T08:46:40.560Z,7.9
2022-12-25T08:47:42.418Z,8.1
2022-12-25T08:48:44.382Z,8.2
2022-12-25T08:49:46.402Z,8.4
2022-12-25T08:50:48.420Z,8.4
2022-12-25T08:51:50.700Z,8.5
2022-12-25T08:52:52.332Z,8.5
2022-12-25T08:53:54.460Z,8.6
2022-12-25T08:54:56.398Z,8.7
2022-12-25T08:55:58.469Z,8.8
2022-12-25T08:57:02.761Z,8.9
2022-12-25T08:58:02.466Z,8.8
2022-12-25T08:59:04.441Z,8.7
2022-12-25T09:00:06.559Z,8.8
2022-12-25T09:01:08.469Z,8.8
2022-12-25T09:02:10.568Z,8.8
2022-12-25T09:03:12.473Z,8.9
2022-12-25T09:04:14.441Z,9
2022-12-25T09:05:16.426Z,9.1
2022-12-25T09:06:18.425Z,9.2
2022-12-25T09:08:22.486Z,9.5
2022-12-25T09:09:24.419Z,9.6
2022-12-25T09:10:26.457Z,9.7
2022-12-25T09:11:28.550Z,9.8
2022-12-25T09:12:30.663Z,9.8
2022-12-25T09:13:32.422Z,9.8
2022-12-25T09:14:34.405Z,9.8
2022-12-25T09:15:36.538Z,9.9
2022-12-25T09:16:38.349Z,9.9
2022-12-25T09:17:40.504Z,9.8
2022-12-25T09:18:42.458Z,9.8
2022-12-25T09:19:44.467Z,9.7
2022-12-25T09:20:46.483Z,9.7
2022-12-25T09:21:48.433Z,9.6
2022-12-25T09:22:50.500Z,9.6
2022-12-25T09:23:52.427Z,9.5
2022-12-25T09:24:54.446Z,9.4
2022-12-25T09:25:56.438Z,9.4
2022-12-25T09:26:58.458Z,9.3
2022-12-25T09:28:00.505Z,9.3
2022-12-25T09:29:02.460Z,9.3
2022-12-25T09:30:09.468Z,9.5
2022-12-25T09:31:11.558Z,9.6
2022-12-25T09:32:13.467Z,9.6
2022-12-25T09:33:15.539Z,9.6
2022-12-25T09:34:19.137Z,9.6
2022-12-25T09:35:19.479Z,9.6
2022-12-25T09:36:21.604Z,9.7
2022-12-25T09:37:24.006Z,9.7
2022-12-25T09:38:25.437Z,9.9
2022-12-25T09:39:27.458Z,10
2022-12-25T09:40:29.417Z,10.1
2022-12-25T09:41:31.679Z,10.3
2022-12-25T09:42:33.439Z,10.5
2022-12-25T09:43:35.463Z,10.7
2022-12-25T09:44:37.431Z,10.9
2022-12-25T09:45:38.397Z,11.1
2022-12-25T09:46:40.502Z,11.2
2022-12-25T09:47:42.406Z,11.5
2022-12-25T09:48:44.424Z,11.7
2022-12-25T09:49:46.460Z,11.9
2022-12-25T09:50:48.448Z,12.1
2022-12-25T09:51:52.459Z,12.1
2022-12-25T09:52:54.427Z,12.2
2022-12-25T09:53:56.480Z,12.2
2022-12-25T09:54:58.439Z,12.3
2022-12-25T09:56:00.417Z,12.2
2022-12-25T09:57:02.501Z,12.1
2022-12-25T09:58:04.406Z,11.9
2022-12-25T09:59:06.441Z,11.8
2022-12-25T10:00:07.480Z,11.9
2022-12-25T10:01:09.443Z,12.1
2022-12-25T10:02:11.743Z,12.2
2022-12-25T10:03:13.568Z,12.4
2022-12-25T10:04:15.516Z,12.5
2022-12-25T10:05:17.447Z,12.5
2022-12-25T10:06:18.449Z,12.4
2022-12-25T10:07:19.540Z,12.5
2022-12-25T10:08:21.485Z,12.4
2022-12-25T10:09:23.461Z,12.4
2022-12-25T10:10:25.456Z,12.3
2022-12-25T10:11:27.520Z,12.4
2022-12-25T10:12:29.483Z,12.4
2022-12-25T10:13:31.460Z,12.5
2022-12-25T10:14:33.445Z,12.6
2022-12-25T10:15:39.078Z,12.8
2022-12-25T10:16:37.529Z,12.8
2022-12-25T10:17:39.426Z,12.9
2022-12-25T10:18:41.452Z,13
2022-12-25T10:19:43.448Z,13
2022-12-25T10:20:45.393Z,13.1
2022-12-25T10:21:47.489Z,13.1
2022-12-25T10:22:49.418Z,13.1
2022-12-25T10:23:51.448Z,13.1
2022-12-25T10:24:53.421Z,13
2022-12-25T10:25:55.518Z,13
2022-12-25T10:26:57.432Z,13
2022-12-25T10:27:58.424Z,13.1
2022-12-25T10:29:00.443Z,13.1
2022-12-25T10:30:02.526Z,13.1
2022-12-25T10:31:04.503Z,13.1
2022-12-25T10:32:06.474Z,13.1
2022-12-25T10:33:12.126Z,13.2
2022-12-25T10:34:10.456Z,13.2
2022-12-25T10:35:11.418Z,13.2
2022-12-25T10:36:12.438Z,13.4
2022-12-25T10:37:14.458Z,13.5
2022-12-25T10:38:16.871Z,13.6
2022-12-25T10:39:18.536Z,13.8
2022-12-25T10:40:20.421Z,13.8
2022-12-25T10:41:22.498Z,13.7
2022-12-25T10:42:24.500Z,13.6
2022-12-25T10:43:26.519Z,13.5
2022-12-25T10:44:28.458Z,13.6
2022-12-25T10:45:30.501Z,13.5
2022-12-25T10:46:32.495Z,13.4
2022-12-25T10:47:34.519Z,13.4
2022-12-25T10:48:36.969Z,13.4
2022-12-25T10:49:38.530Z,13.1
2022-12-25T10:50:41.282Z,12.8
2022-12-25T10:51:43.483Z,12.5
2022-12-25T10:52:45.658Z,12.4
2022-12-25T10:53:47.499Z,12.5
2022-12-25T10:54:49.884Z,12.5
2022-12-25T10:55:51.488Z,12.4
2022-12-25T10:56:53.443Z,12.5
2022-12-25T10:57:55.482Z,12.6
2022-12-25T10:58:57.422Z,12.8
2022-12-25T10:59:59.822Z,12.8
2022-12-25T11:01:01.666Z,13
2022-12-25T11:02:03.647Z,13.1
2022-12-25T11:03:05.590Z,13.1
2022-12-25T11:04:06.596Z,13.1
2022-12-25T11:05:08.501Z,13.2
2022-12-25T11:06:10.498Z,13.2
2022-12-25T11:07:12.819Z,13.1
2022-12-25T11:08:14.500Z,13.1
2022-12-25T11:09:16.721Z,13.1
2022-12-25T11:10:18.829Z,13.1
2022-12-25T11:11:20.472Z,13.2
2022-12-25T11:12:22.899Z,13.3
2022-12-25T11:13:24.548Z,13.5
2022-12-25T11:14:26.488Z,13.8
2022-12-25T11:15:28.527Z,14.1
2022-12-25T11:16:30.624Z,14.2
2022-12-25T11:17:32.522Z,14.1
2022-12-25T11:18:34.502Z,13.8
2022-12-25T11:19:36.898Z,13.8
2022-12-25T11:20:41.288Z,14
2022-12-25T11:21:40.959Z,14.2
2022-12-25T11:22:42.519Z,14.4
2022-12-25T11:23:44.511Z,14.5
2022-12-25T11:24:46.498Z,14.6
2022-12-25T11:25:48.472Z,14.7
2022-12-25T11:26:50.628Z,14.8
2022-12-25T11:27:53.652Z,14.9
2022-12-25T11:28:54.490Z,14.9
2022-12-25T11:29:55.493Z,14.9
2022-12-25T11:30:57.558Z,14.9
2022-12-25T11:31:59.740Z,14.9
2022-12-25T11:33:01.700Z,15
2022-12-25T11:34:03.524Z,14.9
2022-12-25T11:35:05.667Z,15
2022-12-25T11:36:07.639Z,15.1
2022-12-25T11:37:09.503Z,15.1
2022-12-25T11:38:11.840Z,15.1
2022-12-25T11:39:13.500Z,15.1
2022-12-25T11:40:15.505Z,15.1
2022-12-25T11:41:17.554Z,15.1
2022-12-25T11:42:19.502Z,15
2022-12-25T11:43:21.517Z,14.7
2022-12-25T11:44:23.647Z,14.4
2022-12-25T11:45:25.500Z,14.2
2022-12-25T11:46:28.378Z,14.1
2022-12-25T11:47:29.912Z,14.1
2022-12-25T11:48:31.477Z,14.2
2022-12-25T11:49:33.500Z,14.2
2022-12-25T11:50:35.868Z,14.1
2022-12-25T11:51:37.697Z,14.2
2022-12-25T11:52:39.618Z,14.2
2022-12-25T11:53:41.825Z,14.2
2022-12-25T11:54:43.639Z,14.2
2022-12-25T11:55:45.799Z,14.2
2022-12-25T11:56:47.959Z,14.3
2022-12-25T11:57:49.557Z,14.3
2022-12-25T11:58:51.519Z,14.4
2022-12-25T11:59:53.482Z,14.5
2022-12-25T12:00:54.489Z,14.5
2022-12-25T12:01:56.601Z,14.4
2022-12-25T12:02:58.684Z,14.4
2022-12-25T12:03:59.576Z,14.4
2022-12-25T12:05:01.595Z,14.5
2022-12-25T12:06:03.539Z,14.6
2022-12-25T12:07:05.498Z,14.8
2022-12-25T12:08:07.503Z,15
2022-12-25T12:09:09.899Z,15.1
2022-12-25T12:10:11.561Z,15
2022-12-25T12:11:13.522Z,15.1
2022-12-25T12:12:15.587Z,15.2
2022-12-25T12:13:17.517Z,15.3
2022-12-25T12:14:19.502Z,15.5
2022-12-25T12:15:20.499Z,15.5
2022-12-25T12:16:22.542Z,15.6
2022-12-25T12:17:24.483Z,15.9
2022-12-25T12:18:26.668Z,15.8
2022-12-25T12:19:28.546Z,15.9
2022-12-25T12:20:30.719Z,15.9
2022-12-25T12:21:32.627Z,15.9
2022-12-25T12:22:34.517Z,15.9
2022-12-25T12:23:41.544Z,15.9
2022-12-25T12:24:43.508Z,15.8
2022-12-25T12:25:45.501Z,15.7
2022-12-25T12:26:47.500Z,15.6
2022-12-25T12:27:49.538Z,15.7
2022-12-25T12:28:51.549Z,15.7
2022-12-25T12:29:53.562Z,15.7
2022-12-25T12:30:55.581Z,15.8
2022-12-25T12:31:57.656Z,16
2022-12-25T12:32:59.617Z,16
2022-12-25T12:34:01.598Z,15.9
2022-12-25T12:35:03.575Z,16
2022-12-25T12:36:05.520Z,16
2022-12-25T12:37:07.539Z,16.1
2022-12-25T12:38:09.565Z,16.1
2022-12-25T12:39:11.545Z,16.1
2022-12-25T12:40:13.519Z,16.2
2022-12-25T12:41:15.547Z,16.4
2022-12-25T12:42:17.538Z,16.5
2022-12-25T12:43:19.561Z,16.3
2022-12-25T12:44:21.552Z,16.2
2022-12-25T12:45:23.689Z,16.2
2022-12-25T12:46:30.397Z,16.3
2022-12-25T12:47:27.628Z,16.3
2022-12-25T12:48:29.622Z,16.3
2022-12-25T12:49:31.543Z,16.2
2022-12-25T12:50:33.778Z,16.1
2022-12-25T12:51:35.575Z,16
2022-12-25T12:52:37.722Z,16.1
2022-12-25T12:53:39.984Z,16
2022-12-25T12:54:41.899Z,15.9
2022-12-25T12:55:43.738Z,15.8
2022-12-25T12:56:45.838Z,15.5
2022-12-25T12:57:47.651Z,15.2
2022-12-25T12:58:49.538Z,14.9
2022-12-25T12:59:50.638Z,14.7
2022-12-25T13:00:52.595Z,14.4
2022-12-25T13:01:55.088Z,14.4
2022-12-25T13:02:57.159Z,14.2
2022-12-25T13:03:58.959Z,14.1
2022-12-25T13:05:00.607Z,14
2022-12-25T13:06:02.590Z,14
2022-12-25T13:07:04.559Z,14.1
2022-12-25T13:08:06.564Z,14.1
2022-12-25T13:09:08.502Z,14
2022-12-25T13:10:09.611Z,14
2022-12-25T13:11:11.901Z,14
2022-12-25T13:12:13.498Z,14.1
2022-12-25T13:13:15.661Z,14.2
2022-12-25T13:14:17.859Z,14.1
2022-12-25T13:15:20.208Z,14.1
2022-12-25T13:16:21.690Z,14.1
2022-12-25T13:17:23.858Z,13.9
2022-12-25T13:18:25.569Z,13.6
2022-12-25T13:19:27.620Z,13.4
2022-12-25T13:20:29.562Z,13.3
2022-12-25T13:21:31.937Z,13.2
2022-12-25T13:22:33.943Z,13.1
2022-12-25T13:23:35.581Z,13.1
2022-12-25T13:24:37.560Z,13.1
2022-12-25T13:25:39.561Z,13.1
2022-12-25T13:26:41.621Z,13
2022-12-25T13:27:43.617Z,12.9
2022-12-25T13:28:45.537Z,12.8
2022-12-25T13:29:47.564Z,12.7
2022-12-25T13:30:49.696Z,12.6
2022-12-25T13:31:51.643Z,12.6
2022-12-25T13:32:53.608Z,12.5
2022-12-25T13:33:54.604Z,12.4
2022-12-25T13:34:57.101Z,12.2
2022-12-25T13:35:58.627Z,12
2022-12-25T13:37:00.598Z,11.8
2022-12-25T13:38:02.581Z,11.6
2022-12-25T13:39:04.627Z,11.6
2022-12-25T13:40:07.438Z,11.4
2022-12-25T13:41:08.998Z,11.3
2022-12-25T13:42:11.016Z,11.2
2022-12-25T13:43:12.899Z,11.1
2022-12-25T13:44:14.601Z,11
2022-12-25T13:45:16.599Z,11.1
2022-12-25T13:46:18.880Z,11.1
2022-12-25T13:47:20.637Z,11.2
2022-12-25T13:48:22.878Z,11.4
2022-12-25T13:49:24.587Z,11.5
2022-12-25T13:50:26.863Z,11.6
2022-12-25T13:51:28.626Z,11.6
2022-12-25T13:52:30.679Z,11.6
2022-12-25T13:53:33.401Z,11.6
2022-12-25T13:54:34.566Z,11.5
2022-12-25T13:55:35.581Z,11.4
2022-12-25T13:56:37.579Z,11.2
2022-12-25T13:57:39.582Z,11
2022-12-25T13:58:41.574Z,10.9
2022-12-25T13:59:43.629Z,10.7
2022-12-25T14:00:45.608Z,10.6
2022-12-25T14:01:47.905Z,10.5
2022-12-25T14:02:49.844Z,10.3
2022-12-25T14:03:51.665Z,10.4
2022-12-25T14:04:53.608Z,10.5
2022-12-25T14:05:55.559Z,10.7
2022-12-25T14:06:58.725Z,10.7
2022-12-25T14:08:01.053Z,10.7
2022-12-25T14:09:02.699Z,10.8
2022-12-25T14:10:04.698Z,10.8
2022-12-25T14:11:06.626Z,10.9
2022-12-25T14:12:10.769Z,11
2022-12-25T14:13:10.658Z,11
2022-12-25T14:14:12.619Z,10.9